sensor_id;sensor_type;location;lat;lon;timestamp;temperature;humidity
49441;DHT22;35317;51.978;6.296;2023-06-22T00:01:58;19.90;91.80
49441;DHT22;35317;51.978;6.296;2023-06-22T00:06:59;19.80;91.90
49441;DHT22;35317;51.978;6.296;2023-06-22T00:12:00;19.80;92.10
49441;DHT22;35317;51.978;6.296;2023-06-22T00:17:00;19.60;92.10
49441;DHT22;35317;51.978;6.296;2023-06-22T00:22:01;19.60;92.20
49441;DHT22;35317;51.978;6.296;2023-06-22T00:27:04;19.60;92.30
49441;DHT22;35317;51.978;6.296;2023-06-22T00:32:06;19.50;92.50
49441;DHT22;35317;51.978;6.296;2023-06-22T00:37:07;19.50;92.60
49441;DHT22;35317;51.978;6.296;2023-06-22T00:42:07;19.40;92.70
49441;DHT22;35317;51.978;6.296;2023-06-22T00:47:08;19.40;92.80
49441;DHT22;35317;51.978;6.296;2023-06-22T00:52:10;19.40;92.90
49441;DHT22;35317;51.978;6.296;2023-06-22T00:57:14;19.30;93.00
49441;DHT22;35317;51.978;6.296;2023-06-22T01:02:18;19.30;93.10
49441;DHT22;35317;51.978;6.296;2023-06-22T01:07:28;19.10;93.20
49441;DHT22;35317;51.978;6.296;2023-06-22T01:12:36;19.00;93.30
49441;DHT22;35317;51.978;6.296;2023-06-22T01:17:41;18.90;93.50
49441;DHT22;35317;51.978;6.296;2023-06-22T01:23:05;18.80;93.70
49441;DHT22;35317;51.978;6.296;2023-06-22T01:33:24;18.70;94.10
49441;DHT22;35317;51.978;6.296;2023-06-22T01:38:25;18.60;94.10
49441;DHT22;35317;51.978;6.296;2023-06-22T01:43:27;18.50;94.10
49441;DHT22;35317;51.978;6.296;2023-06-22T01:48:28;18.50;94.30
49441;DHT22;35317;51.978;6.296;2023-06-22T01:53:29;18.40;94.50
49441;DHT22;35317;51.978;6.296;2023-06-22T01:58:31;18.40;94.70
49441;DHT22;35317;51.978;6.296;2023-06-22T02:03:43;18.40;94.80
49441;DHT22;35317;51.978;6.296;2023-06-22T02:09:02;18.30;95.00
49441;DHT22;35317;51.978;6.296;2023-06-22T02:14:05;18.30;95.10
49441;DHT22;35317;51.978;6.296;2023-06-22T02:19:07;18.30;95.20
49441;DHT22;35317;51.978;6.296;2023-06-22T02:24:08;18.30;95.40
49441;DHT22;35317;51.978;6.296;2023-06-22T02:29:09;18.30;95.50
49441;DHT22;35317;51.978;6.296;2023-06-22T02:34:10;18.30;95.90
49441;DHT22;35317;51.978;6.296;2023-06-22T02:39:11;18.30;95.70
49441;DHT22;35317;51.978;6.296;2023-06-22T02:44:11;18.20;95.70
49441;DHT22;35317;51.978;6.296;2023-06-22T02:49:13;18.20;95.80
49441;DHT22;35317;51.978;6.296;2023-06-22T02:54:13;18.20;96.00
49441;DHT22;35317;51.978;6.296;2023-06-22T02:59:14;18.10;96.10
49441;DHT22;35317;51.978;6.296;2023-06-22T03:04:15;18.10;96.20
49441;DHT22;35317;51.978;6.296;2023-06-22T03:09:16;18.10;96.20
49441;DHT22;35317;51.978;6.296;2023-06-22T03:14:17;18.10;96.40
49441;DHT22;35317;51.978;6.296;2023-06-22T03:19:18;18.10;96.50
49441;DHT22;35317;51.978;6.296;2023-06-22T03:24:19;18.00;96.60
49441;DHT22;35317;51.978;6.296;2023-06-22T03:29:21;18.00;96.70
49441;DHT22;35317;51.978;6.296;2023-06-22T03:34:21;18.00;96.80
49441;DHT22;35317;51.978;6.296;2023-06-22T03:39:22;18.00;96.90
49441;DHT22;35317;51.978;6.296;2023-06-22T03:44:23;18.00;97.00
49441;DHT22;35317;51.978;6.296;2023-06-22T03:49:24;18.00;97.40
49441;DHT22;35317;51.978;6.296;2023-06-22T03:54:25;17.90;97.20
49441;DHT22;35317;51.978;6.296;2023-06-22T03:59:26;17.90;97.30
49441;DHT22;35317;51.978;6.296;2023-06-22T04:04:27;17.90;97.40
49441;DHT22;35317;51.978;6.296;2023-06-22T04:09:28;17.90;97.60
49441;DHT22;35317;51.978;6.296;2023-06-22T04:14:29;17.90;97.60
49441;DHT22;35317;51.978;6.296;2023-06-22T04:19:29;18.00;97.70
49441;DHT22;35317;51.978;6.296;2023-06-22T04:24:30;17.90;97.80
49441;DHT22;35317;51.978;6.296;2023-06-22T04:29:31;18.00;97.90
49441;DHT22;35317;51.978;6.296;2023-06-22T04:34:32;18.00;98.00
49441;DHT22;35317;51.978;6.296;2023-06-22T04:39:33;18.00;98.10
49441;DHT22;35317;51.978;6.296;2023-06-22T04:44:34;18.10;98.30
49441;DHT22;35317;51.978;6.296;2023-06-22T04:49:36;18.20;98.30
49441;DHT22;35317;51.978;6.296;2023-06-22T04:54:40;18.50;98.30
49441;DHT22;35317;51.978;6.296;2023-06-22T04:59:48;18.60;98.20
49441;DHT22;35317;51.978;6.296;2023-06-22T05:04:48;18.80;98.20
49441;DHT22;35317;51.978;6.296;2023-06-22T05:09:51;18.90;98.10
49441;DHT22;35317;51.978;6.296;2023-06-22T05:14:52;19.10;98.20
49441;DHT22;35317;51.978;6.296;2023-06-22T05:19:54;19.20;98.10
49441;DHT22;35317;51.978;6.296;2023-06-22T05:24:55;19.40;98.00
49441;DHT22;35317;51.978;6.296;2023-06-22T05:29:56;19.60;97.90
49441;DHT22;35317;51.978;6.296;2023-06-22T05:34:57;19.80;97.80
49441;DHT22;35317;51.978;6.296;2023-06-22T05:39:57;19.90;97.70
49441;DHT22;35317;51.978;6.296;2023-06-22T05:44:58;20.10;97.50
49441;DHT22;35317;51.978;6.296;2023-06-22T05:49:59;20.30;97.30
49441;DHT22;35317;51.978;6.296;2023-06-22T05:55:01;20.50;97.00
49441;DHT22;35317;51.978;6.296;2023-06-22T06:00:02;20.60;96.70
49441;DHT22;35317;51.978;6.296;2023-06-22T06:05:07;20.70;96.50
49441;DHT22;35317;51.978;6.296;2023-06-22T06:10:09;20.80;96.30
49441;DHT22;35317;51.978;6.296;2023-06-22T06:15:10;21.00;96.20
49441;DHT22;35317;51.978;6.296;2023-06-22T06:20:11;21.10;95.90
49441;DHT22;35317;51.978;6.296;2023-06-22T06:25:13;21.20;95.70
49441;DHT22;35317;51.978;6.296;2023-06-22T06:30:18;21.40;95.50
49441;DHT22;35317;51.978;6.296;2023-06-22T06:35:19;21.70;95.10
49441;DHT22;35317;51.978;6.296;2023-06-22T06:40:19;21.90;94.80
49441;DHT22;35317;51.978;6.296;2023-06-22T06:45:22;22.10;94.40
49441;DHT22;35317;51.978;6.296;2023-06-22T06:50:23;22.30;94.00
49441;DHT22;35317;51.978;6.296;2023-06-22T06:55:24;22.40;93.70
49441;DHT22;35317;51.978;6.296;2023-06-22T07:00:26;22.60;93.30
49441;DHT22;35317;51.978;6.296;2023-06-22T07:05:26;22.70;92.80
49441;DHT22;35317;51.978;6.296;2023-06-22T07:10:28;22.90;92.50
49441;DHT22;35317;51.978;6.296;2023-06-22T07:15:29;23.10;92.20
49441;DHT22;35317;51.978;6.296;2023-06-22T07:20:30;23.30;91.90
49441;DHT22;35317;51.978;6.296;2023-06-22T07:25:31;23.60;91.50
49441;DHT22;35317;51.978;6.296;2023-06-22T07:30:32;23.90;91.20
49441;DHT22;35317;51.978;6.296;2023-06-22T07:35:34;24.10;90.60
49441;DHT22;35317;51.978;6.296;2023-06-22T07:40:34;24.30;90.40
49441;DHT22;35317;51.978;6.296;2023-06-22T07:45:38;24.60;90.10
49441;DHT22;35317;51.978;6.296;2023-06-22T07:50:40;24.80;89.70
49441;DHT22;35317;51.978;6.296;2023-06-22T07:55:41;25.00;88.90
49441;DHT22;35317;51.978;6.296;2023-06-22T08:00:42;25.10;88.20
49441;DHT22;35317;51.978;6.296;2023-06-22T08:05:42;25.20;87.40
49441;DHT22;35317;51.978;6.296;2023-06-22T08:10:43;25.20;87.20
49441;DHT22;35317;51.978;6.296;2023-06-22T08:15:44;25.40;86.80
49441;DHT22;35317;51.978;6.296;2023-06-22T08:20:45;25.50;86.40
49441;DHT22;35317;51.978;6.296;2023-06-22T08:25:46;25.60;85.50
49441;DHT22;35317;51.978;6.296;2023-06-22T08:30:48;25.80;84.90
49441;DHT22;35317;51.978;6.296;2023-06-22T08:35:49;26.10;84.50
49441;DHT22;35317;51.978;6.296;2023-06-22T08:40:50;26.20;83.20
49441;DHT22;35317;51.978;6.296;2023-06-22T08:45:51;26.40;82.50
49441;DHT22;35317;51.978;6.296;2023-06-22T08:50:52;26.70;81.10
49441;DHT22;35317;51.978;6.296;2023-06-22T08:55:52;26.60;80.30
49441;DHT22;35317;51.978;6.296;2023-06-22T09:00:53;26.60;79.20
49441;DHT22;35317;51.978;6.296;2023-06-22T09:05:54;26.60;78.50
49441;DHT22;35317;51.978;6.296;2023-06-22T09:10:55;27.00;77.80
49441;DHT22;35317;51.978;6.296;2023-06-22T09:15:56;27.10;76.20
49441;DHT22;35317;51.978;6.296;2023-06-22T09:20:56;27.10;76.00
49441;DHT22;35317;51.978;6.296;2023-06-22T09:25:57;27.30;76.00
49441;DHT22;35317;51.978;6.296;2023-06-22T09:30:58;27.30;75.10
49441;DHT22;35317;51.978;6.296;2023-06-22T09:36:00;27.30;74.40
49441;DHT22;35317;51.978;6.296;2023-06-22T09:41:01;27.10;74.10
49441;DHT22;35317;51.978;6.296;2023-06-22T09:46:02;27.00;73.90
49441;DHT22;35317;51.978;6.296;2023-06-22T09:51:03;27.00;73.90
49441;DHT22;35317;51.978;6.296;2023-06-22T09:56:04;27.00;74.00
49441;DHT22;35317;51.978;6.296;2023-06-22T10:01:06;26.90;73.70
49441;DHT22;35317;51.978;6.296;2023-06-22T10:06:07;26.90;74.50
49441;DHT22;35317;51.978;6.296;2023-06-22T10:11:09;26.90;73.20
49441;DHT22;35317;51.978;6.296;2023-06-22T10:16:09;26.80;73.20
49441;DHT22;35317;51.978;6.296;2023-06-22T10:21:10;26.60;73.20
49441;DHT22;35317;51.978;6.296;2023-06-22T10:26:11;26.40;72.90
49441;DHT22;35317;51.978;6.296;2023-06-22T10:31:12;26.20;73.10
49441;DHT22;35317;51.978;6.296;2023-06-22T10:36:13;26.10;73.50
49441;DHT22;35317;51.978;6.296;2023-06-22T10:41:14;25.90;73.70
49441;DHT22;35317;51.978;6.296;2023-06-22T10:46:14;25.90;74.20
49441;DHT22;35317;51.978;6.296;2023-06-22T10:51:15;25.90;74.60
49441;DHT22;35317;51.978;6.296;2023-06-22T10:56:16;25.90;74.90
49441;DHT22;35317;51.978;6.296;2023-06-22T11:01:20;25.80;75.10
49441;DHT22;35317;51.978;6.296;2023-06-22T11:06:21;25.80;75.50
49441;DHT22;35317;51.978;6.296;2023-06-22T11:11:22;25.80;76.20
49441;DHT22;35317;51.978;6.296;2023-06-22T11:16:22;25.80;77.10
49441;DHT22;35317;51.978;6.296;2023-06-22T11:21:23;25.80;77.80
49441;DHT22;35317;51.978;6.296;2023-06-22T11:26:24;25.80;78.20
49441;DHT22;35317;51.978;6.296;2023-06-22T11:31:27;25.70;78.40
49441;DHT22;35317;51.978;6.296;2023-06-22T11:36:29;25.60;78.40
49441;DHT22;35317;51.978;6.296;2023-06-22T11:41:33;25.50;78.80
49441;DHT22;35317;51.978;6.296;2023-06-22T11:46:34;25.40;79.10
49441;DHT22;35317;51.978;6.296;2023-06-22T11:51:35;25.40;79.40
49441;DHT22;35317;51.978;6.296;2023-06-22T11:56:36;25.30;80.40
49441;DHT22;35317;51.978;6.296;2023-06-22T12:01:37;25.20;81.80
49441;DHT22;35317;51.978;6.296;2023-06-22T12:06:38;25.00;82.70
49441;DHT22;35317;51.978;6.296;2023-06-22T12:11:42;24.80;84.40
49441;DHT22;35317;51.978;6.296;2023-06-22T12:16:43;24.60;85.80
49441;DHT22;35317;51.978;6.296;2023-06-22T12:21:44;24.50;87.20
49441;DHT22;35317;51.978;6.296;2023-06-22T12:26:49;24.30;88.50
49441;DHT22;35317;51.978;6.296;2023-06-22T12:31:50;24.10;89.80
49441;DHT22;35317;51.978;6.296;2023-06-22T12:36:51;24.00;90.30
49441;DHT22;35317;51.978;6.296;2023-06-22T12:41:54;23.80;90.80
49441;DHT22;35317;51.978;6.296;2023-06-22T12:46:56;23.60;91.40
49441;DHT22;35317;51.978;6.296;2023-06-22T12:51:57;23.40;91.90
49441;DHT22;35317;51.978;6.296;2023-06-22T12:56:58;23.10;92.60
49441;DHT22;35317;51.978;6.296;2023-06-22T13:01:59;22.90;93.10
49441;DHT22;35317;51.978;6.296;2023-06-22T13:06:59;22.70;93.60
49441;DHT22;35317;51.978;6.296;2023-06-22T13:12:00;22.60;94.20
49441;DHT22;35317;51.978;6.296;2023-06-22T13:17:01;22.40;94.70
49441;DHT22;35317;51.978;6.296;2023-06-22T13:22:02;22.20;95.30
49441;DHT22;35317;51.978;6.296;2023-06-22T13:27:04;22.10;95.70
49441;DHT22;35317;51.978;6.296;2023-06-22T13:32:08;22.10;96.00
49441;DHT22;35317;51.978;6.296;2023-06-22T13:37:09;22.10;96.30
49441;DHT22;35317;51.978;6.296;2023-06-22T13:42:10;22.10;96.50
49441;DHT22;35317;51.978;6.296;2023-06-22T13:47:11;22.10;96.70
49441;DHT22;35317;51.978;6.296;2023-06-22T13:52:21;22.10;97.10
49441;DHT22;35317;51.978;6.296;2023-06-22T13:57:21;22.20;97.40
49441;DHT22;35317;51.978;6.296;2023-06-22T14:02:22;22.40;97.70
49441;DHT22;35317;51.978;6.296;2023-06-22T14:07:23;22.60;97.60
49441;DHT22;35317;51.978;6.296;2023-06-22T14:12:24;22.70;97.40
49441;DHT22;35317;51.978;6.296;2023-06-22T14:17:25;22.70;97.50
49441;DHT22;35317;51.978;6.296;2023-06-22T14:22:26;22.80;97.50
49441;DHT22;35317;51.978;6.296;2023-06-22T14:27:29;22.70;97.60
49441;DHT22;35317;51.978;6.296;2023-06-22T14:32:30;22.60;97.60
49441;DHT22;35317;51.978;6.296;2023-06-22T14:37:34;22.50;97.90
49441;DHT22;35317;51.978;6.296;2023-06-22T14:42:35;22.40;98.00
49441;DHT22;35317;51.978;6.296;2023-06-22T14:47:35;22.40;98.20
49441;DHT22;35317;51.978;6.296;2023-06-22T14:52:36;22.30;98.30
49441;DHT22;35317;51.978;6.296;2023-06-22T14:57:37;22.30;98.40
49441;DHT22;35317;51.978;6.296;2023-06-22T15:02:38;22.20;98.60
49441;DHT22;35317;51.978;6.296;2023-06-22T15:07:39;22.20;98.70
49441;DHT22;35317;51.978;6.296;2023-06-22T15:12:40;22.10;98.90
49441;DHT22;35317;51.978;6.296;2023-06-22T15:17:40;22.00;99.10
49441;DHT22;35317;51.978;6.296;2023-06-22T15:22:41;22.00;99.40
49441;DHT22;35317;51.978;6.296;2023-06-22T15:27:42;21.90;99.70
49441;DHT22;35317;51.978;6.296;2023-06-22T15:32:45;21.80;99.90
49441;DHT22;35317;51.978;6.296;2023-06-22T15:37:48;21.70;99.90
49441;DHT22;35317;51.978;6.296;2023-06-22T15:42:52;21.50;99.90
49441;DHT22;35317;51.978;6.296;2023-06-22T15:47:53;21.30;99.90
49441;DHT22;35317;51.978;6.296;2023-06-22T15:52:54;21.10;99.90
49441;DHT22;35317;51.978;6.296;2023-06-22T15:57:55;20.90;99.90
49441;DHT22;35317;51.978;6.296;2023-06-22T16:02:55;20.70;99.90
49441;DHT22;35317;51.978;6.296;2023-06-22T16:07:57;20.60;99.90
49441;DHT22;35317;51.978;6.296;2023-06-22T16:12:58;20.40;99.90
49441;DHT22;35317;51.978;6.296;2023-06-22T16:17:59;20.20;99.90
49441;DHT22;35317;51.978;6.296;2023-06-22T16:23:00;20.00;99.90
49441;DHT22;35317;51.978;6.296;2023-06-22T16:28:01;19.80;99.90
49441;DHT22;35317;51.978;6.296;2023-06-22T16:33:02;19.70;99.90
49441;DHT22;35317;51.978;6.296;2023-06-22T16:38:03;19.60;99.90
49441;DHT22;35317;51.978;6.296;2023-06-22T16:43:42;19.60;99.90
49441;DHT22;35317;51.978;6.296;2023-06-22T17:00:33;19.40;99.90
49441;DHT22;35317;51.978;6.296;2023-06-22T17:05:35;19.30;99.90
49441;DHT22;35317;51.978;6.296;2023-06-22T17:10:37;19.20;99.90
49441;DHT22;35317;51.978;6.296;2023-06-22T17:16:08;19.20;99.90
49441;DHT22;35317;51.978;6.296;2023-06-22T17:21:12;19.10;99.90
49441;DHT22;35317;51.978;6.296;2023-06-22T17:26:14;19.10;99.90
49441;DHT22;35317;51.978;6.296;2023-06-22T17:31:22;19.10;99.90
49441;DHT22;35317;51.978;6.296;2023-06-22T17:36:25;19.10;99.90
49441;DHT22;35317;51.978;6.296;2023-06-22T17:41:52;19.20;99.90
49441;DHT22;35317;51.978;6.296;2023-06-22T17:46:57;19.20;99.90
49441;DHT22;35317;51.978;6.296;2023-06-22T17:52:00;19.20;99.90
49441;DHT22;35317;51.978;6.296;2023-06-22T17:57:01;19.20;99.90
49441;DHT22;35317;51.978;6.296;2023-06-22T18:02:06;19.20;99.90
49441;DHT22;35317;51.978;6.296;2023-06-22T18:07:09;19.30;99.90
49441;DHT22;35317;51.978;6.296;2023-06-22T18:12:10;19.30;99.90
49441;DHT22;35317;51.978;6.296;2023-06-22T18:23:33;19.30;99.90
49441;DHT22;35317;51.978;6.296;2023-06-22T18:28:39;19.20;99.90
49441;DHT22;35317;51.978;6.296;2023-06-22T18:34:06;19.30;99.90
49441;DHT22;35317;51.978;6.296;2023-06-22T18:52:41;19.10;99.90
49441;DHT22;35317;51.978;6.296;2023-06-22T18:57:42;19.00;99.90
49441;DHT22;35317;51.978;6.296;2023-06-22T19:07:56;19.00;99.90
49441;DHT22;35317;51.978;6.296;2023-06-22T19:18:35;18.90;99.90
49441;DHT22;35317;51.978;6.296;2023-06-22T19:23:39;18.80;99.90
49441;DHT22;35317;51.978;6.296;2023-06-22T19:28:54;18.70;99.90
49441;DHT22;35317;51.978;6.296;2023-06-22T19:34:03;18.70;99.90
49441;DHT22;35317;51.978;6.296;2023-06-22T19:45:21;18.60;99.90
49441;DHT22;35317;51.978;6.296;2023-06-22T19:50:21;18.60;99.90
49441;DHT22;35317;51.978;6.296;2023-06-22T19:55:22;18.50;99.90
49441;DHT22;35317;51.978;6.296;2023-06-22T20:00:23;18.40;99.90
49441;DHT22;35317;51.978;6.296;2023-06-22T20:05:25;18.30;99.90
49441;DHT22;35317;51.978;6.296;2023-06-22T20:10:36;18.20;99.90
49441;DHT22;35317;51.978;6.296;2023-06-22T20:15:44;18.20;99.90
49441;DHT22;35317;51.978;6.296;2023-06-22T20:20:52;18.10;99.90
49441;DHT22;35317;51.978;6.296;2023-06-22T20:25:54;17.90;99.90
49441;DHT22;35317;51.978;6.296;2023-06-22T20:31:09;17.80;99.90
49441;DHT22;35317;51.978;6.296;2023-06-22T20:36:13;17.70;99.90
49441;DHT22;35317;51.978;6.296;2023-06-22T20:41:18;17.60;99.90
49441;DHT22;35317;51.978;6.296;2023-06-22T20:46:23;17.50;99.90
49441;DHT22;35317;51.978;6.296;2023-06-22T20:51:24;17.30;99.90
49441;DHT22;35317;51.978;6.296;2023-06-22T20:56:25;17.20;99.90
49441;DHT22;35317;51.978;6.296;2023-06-22T21:01:29;17.10;99.90
49441;DHT22;35317;51.978;6.296;2023-06-22T21:06:33;17.00;99.90
49441;DHT22;35317;51.978;6.296;2023-06-22T21:17:38;17.00;99.90
49441;DHT22;35317;51.978;6.296;2023-06-22T21:22:39;16.90;99.90
49441;DHT22;35317;51.978;6.296;2023-06-22T21:27:42;16.90;99.90
49441;DHT22;35317;51.978;6.296;2023-06-22T21:32:43;16.90;99.90
49441;DHT22;35317;51.978;6.296;2023-06-22T21:37:44;16.90;99.90
49441;DHT22;35317;51.978;6.296;2023-06-22T21:42:50;16.80;99.90
49441;DHT22;35317;51.978;6.296;2023-06-22T21:48:00;16.80;99.90
49441;DHT22;35317;51.978;6.296;2023-06-22T21:53:01;16.80;99.90
49441;DHT22;35317;51.978;6.296;2023-06-22T21:58:02;16.70;99.90
49441;DHT22;35317;51.978;6.296;2023-06-22T22:03:03;16.80;99.90
49441;DHT22;35317;51.978;6.296;2023-06-22T22:08:04;16.80;99.90
49441;DHT22;35317;51.978;6.296;2023-06-22T22:13:05;16.80;99.90
49441;DHT22;35317;51.978;6.296;2023-06-22T22:18:06;16.90;99.90
49441;DHT22;35317;51.978;6.296;2023-06-22T22:23:07;16.90;99.90
49441;DHT22;35317;51.978;6.296;2023-06-22T22:28:08;16.90;99.90
49441;DHT22;35317;51.978;6.296;2023-06-22T22:33:09;16.90;99.90
49441;DHT22;35317;51.978;6.296;2023-06-22T22:38:10;16.90;99.90
49441;DHT22;35317;51.978;6.296;2023-06-22T22:43:10;16.90;99.90
49441;DHT22;35317;51.978;6.296;2023-06-22T22:48:11;16.90;99.90
49441;DHT22;35317;51.978;6.296;2023-06-22T22:53:12;16.90;99.90
49441;DHT22;35317;51.978;6.296;2023-06-22T22:58:13;16.90;99.90
49441;DHT22;35317;51.978;6.296;2023-06-22T23:03:14;16.90;99.90
49441;DHT22;35317;51.978;6.296;2023-06-22T23:08:16;16.90;99.90
49441;DHT22;35317;51.978;6.296;2023-06-22T23:13:17;16.90;99.90
49441;DHT22;35317;51.978;6.296;2023-06-22T23:18:17;16.90;99.90
49441;DHT22;35317;51.978;6.296;2023-06-22T23:23:19;16.90;99.90
49441;DHT22;35317;51.978;6.296;2023-06-22T23:28:19;16.90;99.90
49441;DHT22;35317;51.978;6.296;2023-06-22T23:33:20;16.90;99.90
49441;DHT22;35317;51.978;6.296;2023-06-22T23:38:21;16.90;99.90
49441;DHT22;35317;51.978;6.296;2023-06-22T23:43:23;16.90;99.90
49441;DHT22;35317;51.978;6.296;2023-06-22T23:48:25;16.80;99.90
49441;DHT22;35317;51.978;6.296;2023-06-22T23:53:26;16.80;99.90
49441;DHT22;35317;51.978;6.296;2023-06-22T23:58:27;16.80;99.90
